createdAt,value
2023-05-22T00:00:18.657Z,16.00
2023-05-22T00:02:45.588Z,16.00
2023-05-22T00:05:14.857Z,16.10
2023-05-22T00:07:43.271Z,16.10
2023-05-22T00:10:11.058Z,16.00
2023-05-22T00:12:38.197Z,16.00
2023-05-22T00:15:06.218Z,16.00
2023-05-22T00:17:34.166Z,16.00
2023-05-22T00:20:08.145Z,16.00
2023-05-22T00:22:37.939Z,15.90
2023-05-22T00:25:06.064Z,15.90
2023-05-22T00:27:33.921Z,15.90
2023-05-22T00:30:01.331Z,15.90
2023-05-22T00:32:28.508Z,15.90
2023-05-22T00:34:55.481Z,15.80
2023-05-22T00:37:22.350Z,15.80
2023-05-22T00:39:49.425Z,15.80
2023-05-22T00:42:16.945Z,15.80
2023-05-22T00:44:43.862Z,15.70
2023-05-22T00:47:10.894Z,15.70
2023-05-22T00:49:37.787Z,15.70
2023-05-22T00:52:05.025Z,15.60
2023-05-22T00:54:32.591Z,15.60
2023-05-22T00:57:00.817Z,15.50
2023-05-22T00:59:29.254Z,15.60
2023-05-22T01:01:57.454Z,15.50
2023-05-22T01:04:25.948Z,15.50
2023-05-22T01:06:55.147Z,15.50
2023-05-22T01:09:22.048Z,15.50
2023-05-22T01:12:01.914Z,15.60
2023-05-22T01:14:54.011Z,15.60
2023-05-22T01:17:34.754Z,15.60
2023-05-22T01:21:00.238Z,15.60
2023-05-22T01:24:07.174Z,15.60
2023-05-22T01:27:08.382Z,15.60
2023-05-22T01:29:57.395Z,15.60
2023-05-22T01:32:26.792Z,15.50
2023-05-22T01:34:56.792Z,15.50
2023-05-22T01:37:24.534Z,15.60
2023-05-22T01:39:52.274Z,15.70
2023-05-22T01:42:19.645Z,15.70
2023-05-22T01:44:48.533Z,15.60
2023-05-22T01:47:15.470Z,15.70
2023-05-22T01:49:43.013Z,15.70
2023-05-22T01:52:28.855Z,15.70
2023-05-22T01:55:05.161Z,15.70
2023-05-22T01:57:59.278Z,15.70
2023-05-22T02:00:27.790Z,15.70
2023-05-22T02:03:03.021Z,15.70
2023-05-22T02:05:33.414Z,15.70
2023-05-22T02:08:02.225Z,15.70
2023-05-22T02:10:31.583Z,15.60
2023-05-22T02:12:58.618Z,15.60
2023-05-22T02:15:25.575Z,15.60
2023-05-22T02:17:53.452Z,15.60
2023-05-22T02:20:20.497Z,15.60
2023-05-22T02:22:47.720Z,15.60
2023-05-22T02:25:17.283Z,15.60
2023-05-22T02:27:46.030Z,15.60
2023-05-22T02:30:17.285Z,15.50
2023-05-22T02:32:44.328Z,15.50
2023-05-22T02:35:11.849Z,15.50
2023-05-22T02:37:39.685Z,15.50
2023-05-22T02:40:07.427Z,15.40
2023-05-22T02:42:35.046Z,15.40
2023-05-22T02:45:04.807Z,15.30
2023-05-22T02:47:34.482Z,15.30
2023-05-22T02:50:01.432Z,15.30
2023-05-22T02:52:28.453Z,15.30
2023-05-22T02:54:57.929Z,15.30
2023-05-22T02:57:24.788Z,15.20
2023-05-22T02:59:52.898Z,15.10
2023-05-22T03:02:19.983Z,15.10
2023-05-22T03:04:47.800Z,15.10
2023-05-22T03:07:17.094Z,15.10
2023-05-22T03:09:46.096Z,15.00
2023-05-22T03:12:13.098Z,15.00
2023-05-22T03:14:43.256Z,14.90
2023-05-22T03:17:10.145Z,14.90
2023-05-22T03:19:37.071Z,14.80
2023-05-22T03:22:06.463Z,14.80
2023-05-22T03:24:35.651Z,14.80
2023-05-22T03:27:05.474Z,14.80
2023-05-22T03:29:32.385Z,14.80
2023-05-22T03:32:01.970Z,14.80
2023-05-22T03:34:30.028Z,14.70
2023-05-22T03:36:58.080Z,14.60
2023-05-22T03:39:27.987Z,14.60
2023-05-22T03:41:54.901Z,14.70
2023-05-22T03:44:21.701Z,14.60
2023-05-22T03:46:48.543Z,14.70
2023-05-22T03:49:15.512Z,14.70
2023-05-22T03:51:42.460Z,14.70
2023-05-22T03:54:09.376Z,14.70
2023-05-22T03:56:36.350Z,14.60
2023-05-22T03:59:03.362Z,14.60
2023-05-22T04:01:31.527Z,14.60
2023-05-22T04:03:58.502Z,14.60
2023-05-22T04:06:25.774Z,14.60
2023-05-22T04:08:52.813Z,14.60
2023-05-22T04:11:21.045Z,14.50
2023-05-22T04:13:50.949Z,14.60
2023-05-22T04:16:18.312Z,14.60
2023-05-22T04:18:45.265Z,14.60
2023-05-22T04:21:12.804Z,14.50
2023-05-22T04:23:43.302Z,14.50
2023-05-22T04:26:10.375Z,14.60
2023-05-22T04:28:38.029Z,14.60
2023-05-22T04:31:06.526Z,14.60
2023-05-22T04:33:34.616Z,14.60
2023-05-22T04:36:02.544Z,14.50
2023-05-22T04:38:29.576Z,14.50
2023-05-22T04:40:57.040Z,14.50
2023-05-22T04:43:26.622Z,14.60
2023-05-22T04:45:54.921Z,14.60
2023-05-22T04:48:22.628Z,14.70
2023-05-22T04:50:50.289Z,14.80
2023-05-22T04:53:17.173Z,14.90
2023-05-22T04:55:44.561Z,14.90
2023-05-22T04:58:11.636Z,14.90
2023-05-22T05:00:38.856Z,14.90
2023-05-22T05:03:08.694Z,14.90
2023-05-22T05:05:35.688Z,15.00
2023-05-22T05:08:02.546Z,15.10
2023-05-22T05:10:29.451Z,15.10
2023-05-22T05:12:56.329Z,15.10
2023-05-22T05:15:23.964Z,15.20
2023-05-22T05:17:51.510Z,15.20
2023-05-22T05:20:18.610Z,15.30
2023-05-22T05:22:46.470Z,15.30
2023-05-22T05:25:13.723Z,15.40
2023-05-22T05:27:40.659Z,15.60
2023-05-22T05:30:08.723Z,15.70
2023-05-22T05:32:36.059Z,15.80
2023-05-22T05:35:03.034Z,15.80
2023-05-22T05:37:29.892Z,15.90
2023-05-22T05:39:56.766Z,16.10
2023-05-22T05:42:23.654Z,16.20
2023-05-22T05:44:50.500Z,16.40
2023-05-22T05:47:17.864Z,16.50
2023-05-22T05:49:44.745Z,16.50
2023-05-22T05:52:11.561Z,16.60
2023-05-22T05:54:38.459Z,16.70
2023-05-22T05:57:06.464Z,17.00
2023-05-22T05:59:33.332Z,17.10
2023-05-22T06:02:00.237Z,17.10
2023-05-22T06:04:28.300Z,17.30
2023-05-22T06:06:55.385Z,17.40
2023-05-22T06:09:22.513Z,17.50
2023-05-22T06:11:49.402Z,17.70
2023-05-22T06:14:16.611Z,17.90
2023-05-22T06:16:44.123Z,18.00
2023-05-22T06:19:11.135Z,18.20
2023-05-22T06:21:38.033Z,18.50
2023-05-22T06:24:05.595Z,18.60
2023-05-22T06:26:33.095Z,18.80
2023-05-22T06:29:00.045Z,18.90
2023-05-22T06:31:28.117Z,18.90
2023-05-22T06:33:55.376Z,18.90
2023-05-22T06:36:22.426Z,19.10
2023-05-22T06:38:49.712Z,19.20
2023-05-22T06:41:16.585Z,19.40
2023-05-22T06:43:43.423Z,19.50
2023-05-22T06:46:10.606Z,19.50
2023-05-22T06:48:37.666Z,19.50
2023-05-22T06:51:04.840Z,19.50
2023-05-22T06:53:31.725Z,19.50
2023-05-22T06:55:58.698Z,19.50
2023-05-22T06:58:25.640Z,19.70
2023-05-22T07:00:54.103Z,19.80
2023-05-22T07:03:21.551Z,20.10
2023-05-22T07:05:48.542Z,20.50
2023-05-22T07:08:15.776Z,20.80
2023-05-22T07:10:42.636Z,21.20
2023-05-22T07:13:09.490Z,21.50
2023-05-22T07:15:36.372Z,21.50
2023-05-22T07:18:03.351Z,21.70
2023-05-22T07:20:30.333Z,21.90
2023-05-22T07:22:58.414Z,22.20
2023-05-22T07:25:25.615Z,22.40
2023-05-22T07:27:52.511Z,22.40
2023-05-22T07:30:19.525Z,22.40
2023-05-22T07:32:47.071Z,22.50
2023-05-22T07:35:14.137Z,22.60
2023-05-22T07:37:41.531Z,22.70
2023-05-22T07:40:09.856Z,22.70
2023-05-22T07:42:36.753Z,23.00
2023-05-22T07:45:03.957Z,23.30
2023-05-22T07:47:30.943Z,23.50
2023-05-22T07:49:57.971Z,23.90
2023-05-22T07:52:24.911Z,24.40
2023-05-22T07:54:51.852Z,24.70
2023-05-22T07:57:18.724Z,25.20
2023-05-22T07:59:45.769Z,25.40
2023-05-22T08:02:12.783Z,25.50
2023-05-22T08:04:39.739Z,25.60
2023-05-22T08:07:07.171Z,25.60
2023-05-22T08:09:34.212Z,25.60
2023-05-22T08:12:01.291Z,26.10
2023-05-22T08:14:28.523Z,26.70
2023-05-22T08:16:57.055Z,27.00
2023-05-22T08:19:24.170Z,27.20
2023-05-22T08:21:52.998Z,27.40
2023-05-22T08:24:19.956Z,27.70
2023-05-22T08:26:46.768Z,28.00
2023-05-22T08:29:13.656Z,28.00
2023-05-22T08:31:40.842Z,27.90
2023-05-22T08:34:07.762Z,27.60
2023-05-22T08:36:35.560Z,28.10
2023-05-22T08:39:02.512Z,28.70
2023-05-22T08:41:30.301Z,29.30
2023-05-22T08:43:57.587Z,29.90
2023-05-22T08:46:29.226Z,30.00
2023-05-22T08:48:57.967Z,29.80
2023-05-22T08:51:29.483Z,30.00
2023-05-22T08:53:56.739Z,29.70
2023-05-22T08:56:27.865Z,29.60
2023-05-22T08:58:57.609Z,29.80
2023-05-22T09:01:24.790Z,29.90
2023-05-22T09:03:52.048Z,29.90
2023-05-22T09:06:19.060Z,29.90
2023-05-22T09:08:46.156Z,30.00
2023-05-22T09:11:13.446Z,30.20
2023-05-22T09:13:41.532Z,30.40
2023-05-22T09:16:15.171Z,30.20
2023-05-22T09:18:42.710Z,29.70
2023-05-22T09:21:28.970Z,29.50
2023-05-22T09:24:01.898Z,29.30
2023-05-22T09:26:29.681Z,29.20
2023-05-22T09:28:59.039Z,29.60
2023-05-22T09:31:26.189Z,29.80
2023-05-22T09:33:53.974Z,29.70
2023-05-22T09:36:22.105Z,29.60
2023-05-22T09:38:49.280Z,29.50
2023-05-22T09:41:22.551Z,29.70
2023-05-22T09:43:52.550Z,29.70
2023-05-22T09:46:19.578Z,29.40
2023-05-22T09:48:52.540Z,28.90
2023-05-22T09:51:26.582Z,28.60
2023-05-22T09:54:03.450Z,28.30
2023-05-22T09:56:39.367Z,27.70
2023-05-22T09:59:09.714Z,28.00
2023-05-22T10:01:39.100Z,28.50
2023-05-22T10:04:08.536Z,29.10
2023-05-22T10:06:37.155Z,29.80
2023-05-22T10:09:07.213Z,29.90
2023-05-22T10:11:35.374Z,30.10
2023-05-22T10:14:03.942Z,30.60
2023-05-22T10:16:31.584Z,30.40
2023-05-22T10:18:58.892Z,30.60
2023-05-22T10:21:26.148Z,30.10
2023-05-22T10:23:55.086Z,30.00
2023-05-22T10:26:23.134Z,30.20
2023-05-22T10:28:58.224Z,30.20
2023-05-22T10:31:46.082Z,29.40
2023-05-22T10:34:21.567Z,28.90
2023-05-22T10:37:36.083Z,28.80
2023-05-22T10:40:08.264Z,28.90
2023-05-22T10:42:37.209Z,28.90
2023-05-22T10:45:07.502Z,28.80
2023-05-22T10:47:34.835Z,29.30
2023-05-22T10:50:12.422Z,29.70
2023-05-22T10:52:40.167Z,30.10
2023-05-22T10:55:09.252Z,29.60
2023-05-22T10:57:39.282Z,28.90
2023-05-22T11:00:10.915Z,28.70
2023-05-22T11:02:46.088Z,28.70
2023-05-22T11:05:39.408Z,28.50
2023-05-22T11:08:10.813Z,28.50
2023-05-22T11:10:54.458Z,28.50
2023-05-22T11:13:21.551Z,28.40
2023-05-22T11:15:48.767Z,28.70
2023-05-22T11:18:17.282Z,28.90
2023-05-22T11:20:44.447Z,29.20
2023-05-22T11:23:11.653Z,29.30
2023-05-22T11:25:41.457Z,29.30
2023-05-22T11:28:10.732Z,29.20
2023-05-22T11:30:38.566Z,29.10
2023-05-22T11:33:06.808Z,28.70
2023-05-22T11:35:34.066Z,28.50
2023-05-22T11:38:05.207Z,28.40
2023-05-22T11:40:32.163Z,28.40
2023-05-22T11:42:59.064Z,28.80
2023-05-22T11:45:27.023Z,28.80
2023-05-22T11:47:54.065Z,28.60
2023-05-22T11:50:33.347Z,28.80
2023-05-22T11:53:08.091Z,29.00
2023-05-22T11:55:35.099Z,29.00
2023-05-22T11:58:02.835Z,28.70
2023-05-22T12:00:31.564Z,28.30
2023-05-22T12:02:58.997Z,28.10
2023-05-22T12:05:26.145Z,28.00
2023-05-22T12:07:53.356Z,28.00
2023-05-22T12:10:20.553Z,28.00
2023-05-22T12:12:48.262Z,28.20
2023-05-22T12:15:20.256Z,28.30
2023-05-22T12:17:47.285Z,28.30
2023-05-22T12:20:15.572Z,28.30
2023-05-22T12:22:43.945Z,28.30
2023-05-22T12:25:17.639Z,28.40
2023-05-22T12:27:46.102Z,28.20
2023-05-22T12:30:14.230Z,27.80
2023-05-22T12:32:41.832Z,27.70
2023-05-22T12:35:16.641Z,27.80
2023-05-22T12:37:49.581Z,27.70
2023-05-22T12:40:16.720Z,27.70
2023-05-22T12:42:44.995Z,27.90
2023-05-22T12:45:13.398Z,28.10
2023-05-22T12:47:40.460Z,28.20
2023-05-22T12:50:08.571Z,28.20
2023-05-22T12:52:36.116Z,28.10
2023-05-22T12:55:03.136Z,28.00
2023-05-22T12:57:30.017Z,27.80
2023-05-22T12:59:56.922Z,27.70
2023-05-22T13:02:23.909Z,27.60
2023-05-22T13:04:50.894Z,27.30
2023-05-22T13:07:17.931Z,26.70
2023-05-22T13:09:44.783Z,26.60
2023-05-22T13:12:11.775Z,26.70
2023-05-22T13:14:40.434Z,26.80
2023-05-22T13:17:07.820Z,26.80
2023-05-22T13:19:34.894Z,26.80
2023-05-22T13:22:01.902Z,26.80
2023-05-22T13:24:28.714Z,26.80
2023-05-22T13:26:55.641Z,26.60
2023-05-22T13:29:22.480Z,26.80
2023-05-22T13:31:49.426Z,27.00
2023-05-22T13:34:16.377Z,27.20
2023-05-22T13:36:43.600Z,27.30
2023-05-22T13:39:10.503Z,27.40
2023-05-22T13:41:37.425Z,27.50
2023-05-22T13:44:04.302Z,27.40
2023-05-22T13:46:31.221Z,27.40
2023-05-22T13:48:58.146Z,27.20
2023-05-22T13:51:25.024Z,27.10
2023-05-22T13:53:51.901Z,26.90
2023-05-22T13:56:18.889Z,26.90
2023-05-22T13:58:45.735Z,26.80
2023-05-22T14:01:12.574Z,26.80
2023-05-22T14:03:39.522Z,26.80
2023-05-22T14:06:06.829Z,26.80
2023-05-22T14:08:33.673Z,26.80
2023-05-22T14:11:01.048Z,26.70
2023-05-22T14:13:27.953Z,26.50
2023-05-22T14:15:54.931Z,26.40
2023-05-22T14:18:21.889Z,26.30
2023-05-22T14:20:48.899Z,26.20
2023-05-22T14:23:15.878Z,26.10
2023-05-22T14:25:43.299Z,26.00
2023-05-22T14:28:14.165Z,26.10
2023-05-22T14:30:41.218Z,26.20
2023-05-22T14:33:08.456Z,26.30
2023-05-22T14:35:35.414Z,26.40
2023-05-22T14:38:02.349Z,26.50
2023-05-22T14:40:29.287Z,26.50
2023-05-22T14:42:56.307Z,26.40
2023-05-22T14:45:23.334Z,26.30
2023-05-22T14:47:50.656Z,26.20
2023-05-22T14:50:20.164Z,26.20
2023-05-22T14:52:47.838Z,26.30
2023-05-22T14:55:15.103Z,26.50
2023-05-22T14:57:42.059Z,26.50
2023-05-22T15:00:10.931Z,26.60
2023-05-22T15:02:38.153Z,26.70
2023-05-22T15:05:07.120Z,26.80
2023-05-22T15:10:05.226Z,27.00
2023-05-22T15:12:32.610Z,26.90
2023-05-22T15:14:59.650Z,26.80
2023-05-22T15:17:26.616Z,26.70
2023-05-22T15:19:53.623Z,26.50
2023-05-22T15:22:20.547Z,25.70
2023-05-22T15:24:48.301Z,23.50
2023-05-22T15:27:17.358Z,21.90
2023-05-22T15:29:44.241Z,21.10
2023-05-22T15:32:11.265Z,20.90
2023-05-22T15:34:38.260Z,20.40
2023-05-22T15:37:05.583Z,20.30
2023-05-22T15:39:32.518Z,20.30
2023-05-22T15:42:06.277Z,19.90
2023-05-22T15:44:33.865Z,19.80
2023-05-22T15:47:00.949Z,19.60
2023-05-22T15:49:30.960Z,19.40
2023-05-22T15:51:58.947Z,19.30
2023-05-22T15:54:25.907Z,19.10
2023-05-22T15:56:52.817Z,19.00
2023-05-22T15:59:19.794Z,19.00
2023-05-22T16:01:46.800Z,19.00
2023-05-22T16:04:13.901Z,19.10
2023-05-22T16:06:41.033Z,19.10
2023-05-22T16:09:08.118Z,19.30
2023-05-22T16:11:35.071Z,19.30
2023-05-22T16:14:02.002Z,19.50
2023-05-22T16:16:28.967Z,19.60
2023-05-22T16:18:56.079Z,19.70
2023-05-22T16:21:23.027Z,19.80
2023-05-22T16:23:50.028Z,19.80
2023-05-22T16:26:16.939Z,19.60
2023-05-22T16:28:43.920Z,19.40
2023-05-22T16:31:12.883Z,19.20
2023-05-22T16:33:39.923Z,19.10
2023-05-22T16:36:07.306Z,19.20
2023-05-22T16:38:34.347Z,19.20
2023-05-22T16:41:01.425Z,19.30
2023-05-22T16:43:28.318Z,19.30
2023-05-22T16:45:55.341Z,19.30
2023-05-22T16:48:22.267Z,19.30
2023-05-22T16:50:49.329Z,19.30
2023-05-22T16:53:17.344Z,19.20
2023-05-22T16:55:45.037Z,19.10
2023-05-22T16:58:12.824Z,19.10
2023-05-22T17:00:40.362Z,19.00
2023-05-22T17:03:08.237Z,19.00
2023-05-22T17:05:35.848Z,19.00
2023-05-22T17:08:03.208Z,18.90
2023-05-22T17:10:30.322Z,18.70
2023-05-22T17:12:57.282Z,18.60
2023-05-22T17:15:24.287Z,18.50
2023-05-22T17:17:51.559Z,18.40
2023-05-22T17:20:19.007Z,18.30
2023-05-22T17:22:45.998Z,18.30
2023-05-22T17:25:13.731Z,18.20
2023-05-22T17:27:40.635Z,18.20
2023-05-22T17:30:08.470Z,18.10
2023-05-22T17:32:35.886Z,18.00
2023-05-22T17:35:03.094Z,18.00
2023-05-22T17:37:30.112Z,17.80
2023-05-22T17:39:56.977Z,17.70
2023-05-22T17:42:25.974Z,17.60
2023-05-22T17:44:52.876Z,17.60
2023-05-22T17:47:19.815Z,17.50
2023-05-22T17:49:46.796Z,17.40
2023-05-22T17:52:14.599Z,17.30
2023-05-22T17:54:41.485Z,17.30
2023-05-22T17:57:08.443Z,17.30
2023-05-22T17:59:36.635Z,17.20
2023-05-22T18:02:04.920Z,17.20
2023-05-22T18:04:31.805Z,17.20
2023-05-22T18:06:58.719Z,17.30
2023-05-22T18:09:25.742Z,17.30
2023-05-22T18:11:53.218Z,17.30
2023-05-22T18:14:20.320Z,17.30
2023-05-22T18:16:47.208Z,17.30
2023-05-22T18:19:14.098Z,17.30
2023-05-22T18:21:41.019Z,17.40
2023-05-22T18:24:08.364Z,17.50
2023-05-22T18:26:35.269Z,17.50
2023-05-22T18:29:02.214Z,17.50
2023-05-22T18:31:29.738Z,17.50
2023-05-22T18:33:56.686Z,17.50
2023-05-22T18:36:23.697Z,17.50
2023-05-22T18:38:50.735Z,17.50
2023-05-22T18:41:17.644Z,17.50
2023-05-22T18:43:44.613Z,17.50
2023-05-22T18:46:11.573Z,17.50
2023-05-22T18:48:38.467Z,17.40
2023-05-22T18:51:05.424Z,17.40
2023-05-22T18:53:32.430Z,17.40
2023-05-22T18:55:59.371Z,17.40
2023-05-22T18:58:26.797Z,17.30
2023-05-22T19:00:55.712Z,17.40
2023-05-22T19:03:22.938Z,17.40
2023-05-22T19:05:49.951Z,17.40
2023-05-22T19:08:16.874Z,17.40
2023-05-22T19:10:43.886Z,17.40
2023-05-22T19:13:10.818Z,17.40
2023-05-22T19:15:38.434Z,17.40
2023-05-22T19:18:05.758Z,17.50
2023-05-22T19:20:32.738Z,17.50
2023-05-22T19:22:59.628Z,17.50
2023-05-22T19:25:26.580Z,17.50
2023-05-22T19:27:53.499Z,17.60
2023-05-22T19:30:21.961Z,17.60
2023-05-22T19:32:55.724Z,17.60
2023-05-22T19:35:23.010Z,17.60
2023-05-22T19:37:50.266Z,17.60
2023-05-22T19:40:17.515Z,17.70
2023-05-22T19:42:44.488Z,17.70
2023-05-22T19:45:11.545Z,17.80
2023-05-22T19:47:38.489Z,17.80
2023-05-22T19:50:06.181Z,17.80
2023-05-22T19:52:33.133Z,17.90
2023-05-22T19:55:00.155Z,17.90
2023-05-22T19:57:27.305Z,17.90
2023-05-22T19:59:54.714Z,17.90
2023-05-22T20:02:23.182Z,17.90
2023-05-22T20:04:51.989Z,17.90
2023-05-22T20:07:18.904Z,17.90
2023-05-22T20:09:45.847Z,17.90
2023-05-22T20:12:12.717Z,17.80
2023-05-22T20:14:39.640Z,17.80
2023-05-22T20:17:07.014Z,17.70
2023-05-22T20:19:34.618Z,17.60
2023-05-22T20:22:02.144Z,17.60
2023-05-22T20:24:29.717Z,17.50
2023-05-22T20:26:56.985Z,17.40
2023-05-22T20:29:23.917Z,17.40
2023-05-22T20:31:55.881Z,17.30
2023-05-22T20:34:23.566Z,17.30
2023-05-22T20:36:50.507Z,17.30
2023-05-22T20:39:18.199Z,17.30
2023-05-22T20:41:46.729Z,17.20
2023-05-22T20:44:13.644Z,17.20
2023-05-22T20:46:40.623Z,17.10
2023-05-22T20:49:07.673Z,17.10
2023-05-22T20:51:34.807Z,17.10
2023-05-22T20:54:01.719Z,17.00
2023-05-22T20:56:30.102Z,16.90
2023-05-22T20:58:57.117Z,16.90
2023-05-22T21:01:24.986Z,16.90
2023-05-22T21:03:53.149Z,16.80
2023-05-22T21:06:20.565Z,16.80
2023-05-22T21:08:47.640Z,16.70
2023-05-22T21:11:14.585Z,16.70
2023-05-22T21:13:41.422Z,16.60
2023-05-22T21:16:08.354Z,16.50
2023-05-22T21:18:35.427Z,16.40
2023-05-22T21:21:02.904Z,16.40
2023-05-22T21:23:29.909Z,16.30
2023-05-22T21:25:56.778Z,16.20
2023-05-22T21:28:24.189Z,16.10
2023-05-22T21:30:51.172Z,16.00
2023-05-22T21:33:18.051Z,15.90
2023-05-22T21:35:45.019Z,15.90
2023-05-22T21:38:11.908Z,15.80
2023-05-22T21:40:40.687Z,15.70
2023-05-22T21:43:07.853Z,15.70
2023-05-22T21:45:34.700Z,15.60
2023-05-22T21:48:01.712Z,15.60
2023-05-22T21:50:29.394Z,15.50
2023-05-22T21:52:56.411Z,15.40
2023-05-22T21:55:23.508Z,15.40
2023-05-22T21:57:50.593Z,15.30
2023-05-22T22:00:18.984Z,15.30
2023-05-22T22:02:45.999Z,15.20
2023-05-22T22:05:13.035Z,15.10
2023-05-22T22:07:40.023Z,15.10
2023-05-22T22:10:07.570Z,15.00
2023-05-22T22:12:34.486Z,15.00
2023-05-22T22:15:02.359Z,15.00
2023-05-22T22:17:30.119Z,15.00
2023-05-22T22:19:57.678Z,15.00
2023-05-22T22:22:25.225Z,15.00
2023-05-22T22:24:52.127Z,15.00
2023-05-22T22:27:19.798Z,15.00
2023-05-22T22:29:46.714Z,14.90
2023-05-22T22:32:13.698Z,14.90
2023-05-22T22:34:40.636Z,14.90
2023-05-22T22:37:07.731Z,14.80
2023-05-22T22:39:34.721Z,14.70
2023-05-22T22:42:04.936Z,14.60
2023-05-22T22:44:32.474Z,14.60
2023-05-22T22:47:01.816Z,14.50
2023-05-22T22:49:28.813Z,14.50
2023-05-22T22:51:56.443Z,14.50
2023-05-22T22:54:24.091Z,14.40
2023-05-22T22:56:51.448Z,14.40
2023-05-22T22:59:18.356Z,14.40
2023-05-22T23:01:45.277Z,14.40
2023-05-22T23:04:13.108Z,14.40
2023-05-22T23:06:42.671Z,14.30
2023-05-22T23:09:11.126Z,14.40
2023-05-22T23:11:38.932Z,14.30
2023-05-22T23:14:07.690Z,14.30
2023-05-22T23:16:40.788Z,14.30
2023-05-22T23:19:08.786Z,14.20
2023-05-22T23:21:36.076Z,14.20
2023-05-22T23:24:04.549Z,14.20
2023-05-22T23:26:32.052Z,14.10
2023-05-22T23:28:59.718Z,14.00
2023-05-22T23:31:30.307Z,14.00
2023-05-22T23:33:57.989Z,14.00
2023-05-22T23:36:25.633Z,13.90
2023-05-22T23:38:52.567Z,13.90
2023-05-22T23:41:19.552Z,13.80
2023-05-22T23:43:47.038Z,13.80
2023-05-22T23:46:14.168Z,13.80
2023-05-22T23:48:42.266Z,13.80
2023-05-22T23:51:10.042Z,13.80
2023-05-22T23:53:37.393Z,13.80
2023-05-22T23:56:05.129Z,13.80
2023-05-22T23:58:32.298Z,13.80
